sensor_id;sensor_type;location;lat;lon;timestamp;pressure;altitude;pressure_sealevel;temperature;humidity
54948;BME280;41113;41.882;12.530;2022-07-06T00:01:46;100947.34;;;29.07;40.59
54948;BME280;41113;41.882;12.530;2022-07-06T00:04:11;100946.00;;;28.93;41.23
54948;BME280;41113;41.882;12.530;2022-07-06T00:06:37;100945.50;;;28.50;42.15
54948;BME280;41113;41.882;12.530;2022-07-06T00:09:03;100954.53;;;28.17;43.18
54948;BME280;41113;41.882;12.530;2022-07-06T00:11:28;100958.59;;;28.27;42.72
54948;BME280;41113;41.882;12.530;2022-07-06T00:13:54;100957.72;;;28.38;42.72
54948;BME280;41113;41.882;12.530;2022-07-06T00:16:21;100960.38;;;28.33;43.00
54948;BME280;41113;41.882;12.530;2022-07-06T00:18:47;100960.38;;;28.21;43.07
54948;BME280;41113;41.882;12.530;2022-07-06T00:21:12;100950.75;;;28.24;43.04
54948;BME280;41113;41.882;12.530;2022-07-06T00:23:37;100949.19;;;28.39;42.51
54948;BME280;41113;41.882;12.530;2022-07-06T00:26:03;100935.78;;;28.48;42.25
54948;BME280;41113;41.882;12.530;2022-07-06T00:28:28;100944.75;;;28.38;42.37
54948;BME280;41113;41.882;12.530;2022-07-06T00:30:53;100938.03;;;28.23;42.62
54948;BME280;41113;41.882;12.530;2022-07-06T00:33:19;100946.31;;;28.34;42.29
54948;BME280;41113;41.882;12.530;2022-07-06T00:35:44;100942.50;;;28.52;41.84
54948;BME280;41113;41.882;12.530;2022-07-06T00:38:09;100939.28;;;28.72;41.31
54948;BME280;41113;41.882;12.530;2022-07-06T00:40:35;100932.47;;;28.79;41.29
54948;BME280;41113;41.882;12.530;2022-07-06T00:43:00;100940.72;;;28.91;40.99
54948;BME280;41113;41.882;12.530;2022-07-06T00:45:25;100938.38;;;29.00;40.96
54948;BME280;41113;41.882;12.530;2022-07-06T00:47:51;100939.38;;;28.94;41.33
54948;BME280;41113;41.882;12.530;2022-07-06T00:50:17;100931.69;;;28.96;41.17
54948;BME280;41113;41.882;12.530;2022-07-06T00:52:46;100932.84;;;29.00;40.73
54948;BME280;41113;41.882;12.530;2022-07-06T00:55:12;100925.41;;;29.00;41.29
54948;BME280;41113;41.882;12.530;2022-07-06T00:57:39;100929.72;;;28.79;41.73
54948;BME280;41113;41.882;12.530;2022-07-06T01:00:05;100935.13;;;28.41;42.75
54948;BME280;41113;41.882;12.530;2022-07-06T01:02:32;100928.84;;;28.45;43.08
54948;BME280;41113;41.882;12.530;2022-07-06T01:04:57;100937.56;;;28.26;43.06
54948;BME280;41113;41.882;12.530;2022-07-06T01:07:23;100936.66;;;28.08;43.73
54948;BME280;41113;41.882;12.530;2022-07-06T01:09:48;100931.84;;;28.15;43.10
54948;BME280;41113;41.882;12.530;2022-07-06T01:12:13;100928.66;;;27.95;43.21
54948;BME280;41113;41.882;12.530;2022-07-06T01:14:39;100927.97;;;27.88;43.52
54948;BME280;41113;41.882;12.530;2022-07-06T01:17:05;100930.88;;;27.81;43.47
54948;BME280;41113;41.882;12.530;2022-07-06T01:19:30;100926.47;;;27.45;44.32
54948;BME280;41113;41.882;12.530;2022-07-06T01:21:55;100923.91;;;27.55;44.29
54948;BME280;41113;41.882;12.530;2022-07-06T01:24:21;100927.78;;;27.66;44.06
54948;BME280;41113;41.882;12.530;2022-07-06T01:26:46;100917.31;;;27.56;44.15
54948;BME280;41113;41.882;12.530;2022-07-06T01:29:12;100918.09;;;27.40;44.52
54948;BME280;41113;41.882;12.530;2022-07-06T01:31:44;100912.81;;;27.27;44.69
54948;BME280;41113;41.882;12.530;2022-07-06T01:34:10;100909.09;;;27.21;44.68
54948;BME280;41113;41.882;12.530;2022-07-06T01:36:36;100912.22;;;27.37;43.63
54948;BME280;41113;41.882;12.530;2022-07-06T01:39:01;100916.75;;;27.66;43.06
54948;BME280;41113;41.882;12.530;2022-07-06T01:41:27;100908.72;;;27.65;42.31
54948;BME280;41113;41.882;12.530;2022-07-06T01:43:52;100918.91;;;27.52;41.95
54948;BME280;41113;41.882;12.530;2022-07-06T01:46:17;100909.47;;;27.13;43.05
54948;BME280;41113;41.882;12.530;2022-07-06T01:48:44;100910.50;;;26.89;43.20
54948;BME280;41113;41.882;12.530;2022-07-06T01:51:10;100906.53;;;26.73;43.53
54948;BME280;41113;41.882;12.530;2022-07-06T01:53:36;100907.81;;;26.59;43.78
54948;BME280;41113;41.882;12.530;2022-07-06T01:56:02;100912.59;;;26.63;43.73
54948;BME280;41113;41.882;12.530;2022-07-06T01:58:27;100916.34;;;26.69;43.49
54948;BME280;41113;41.882;12.530;2022-07-06T02:00:53;100920.06;;;26.75;43.62
54948;BME280;41113;41.882;12.530;2022-07-06T02:03:18;100916.47;;;26.86;43.19
54948;BME280;41113;41.882;12.530;2022-07-06T02:05:43;100923.06;;;26.73;43.12
54948;BME280;41113;41.882;12.530;2022-07-06T02:08:09;100927.09;;;26.59;43.72
54948;BME280;41113;41.882;12.530;2022-07-06T02:10:34;100937.00;;;26.48;43.85
54948;BME280;41113;41.882;12.530;2022-07-06T02:12:59;100935.69;;;26.51;43.80
54948;BME280;41113;41.882;12.530;2022-07-06T02:15:25;100938.31;;;26.46;43.63
54948;BME280;41113;41.882;12.530;2022-07-06T02:17:50;100934.84;;;26.20;43.92
54948;BME280;41113;41.882;12.530;2022-07-06T02:20:15;100930.75;;;26.11;44.25
54948;BME280;41113;41.882;12.530;2022-07-06T02:22:40;100928.91;;;26.05;44.28
54948;BME280;41113;41.882;12.530;2022-07-06T02:25:06;100921.41;;;26.12;44.31
54948;BME280;41113;41.882;12.530;2022-07-06T02:27:32;100921.56;;;25.99;44.54
54948;BME280;41113;41.882;12.530;2022-07-06T02:29:57;100918.22;;;25.97;44.52
54948;BME280;41113;41.882;12.530;2022-07-06T02:32:22;100916.38;;;25.91;44.88
54948;BME280;41113;41.882;12.530;2022-07-06T02:34:48;100912.31;;;25.93;44.64
54948;BME280;41113;41.882;12.530;2022-07-06T02:37:13;100913.31;;;25.99;44.65
54948;BME280;41113;41.882;12.530;2022-07-06T02:39:38;100914.22;;;26.11;44.48
54948;BME280;41113;41.882;12.530;2022-07-06T02:42:03;100904.78;;;26.19;44.02
54948;BME280;41113;41.882;12.530;2022-07-06T02:44:29;100917.72;;;26.18;44.22
54948;BME280;41113;41.882;12.530;2022-07-06T02:46:54;100915.75;;;26.07;44.34
54948;BME280;41113;41.882;12.530;2022-07-06T02:49:19;100912.16;;;26.07;44.48
54948;BME280;41113;41.882;12.530;2022-07-06T02:51:45;100909.47;;;26.00;44.44
54948;BME280;41113;41.882;12.530;2022-07-06T02:54:10;100907.28;;;25.90;44.58
54948;BME280;41113;41.882;12.530;2022-07-06T02:56:35;100911.34;;;26.06;44.57
54948;BME280;41113;41.882;12.530;2022-07-06T02:59:00;100921.50;;;26.05;44.44
54948;BME280;41113;41.882;12.530;2022-07-06T03:01:26;100935.03;;;26.07;44.47
54948;BME280;41113;41.882;12.530;2022-07-06T03:03:51;100932.22;;;26.25;43.81
54948;BME280;41113;41.882;12.530;2022-07-06T03:06:17;100934.50;;;26.47;43.25
54948;BME280;41113;41.882;12.530;2022-07-06T03:08:42;100938.94;;;26.29;43.57
54948;BME280;41113;41.882;12.530;2022-07-06T03:11:07;100924.28;;;25.87;44.52
54948;BME280;41113;41.882;12.530;2022-07-06T03:13:33;100926.97;;;25.76;44.96
54948;BME280;41113;41.882;12.530;2022-07-06T03:15:58;100925.38;;;25.61;45.20
54948;BME280;41113;41.882;12.530;2022-07-06T03:18:23;100926.19;;;25.68;45.06
54948;BME280;41113;41.882;12.530;2022-07-06T03:20:49;100916.81;;;25.76;44.88
54948;BME280;41113;41.882;12.530;2022-07-06T03:23:14;100915.41;;;25.85;44.80
54948;BME280;41113;41.882;12.530;2022-07-06T03:25:39;100923.91;;;25.84;45.00
54948;BME280;41113;41.882;12.530;2022-07-06T03:28:04;100917.97;;;25.98;44.36
54948;BME280;41113;41.882;12.530;2022-07-06T03:30:30;100915.91;;;25.94;44.51
54948;BME280;41113;41.882;12.530;2022-07-06T03:32:55;100918.75;;;25.87;44.73
54948;BME280;41113;41.882;12.530;2022-07-06T03:35:21;100918.63;;;25.82;44.94
54948;BME280;41113;41.882;12.530;2022-07-06T03:37:46;100906.72;;;26.00;44.49
54948;BME280;41113;41.882;12.530;2022-07-06T03:40:11;100915.16;;;26.05;44.58
54948;BME280;41113;41.882;12.530;2022-07-06T03:42:37;100918.06;;;26.10;44.30
54948;BME280;41113;41.882;12.530;2022-07-06T03:45:03;100917.94;;;25.87;44.95
54948;BME280;41113;41.882;12.530;2022-07-06T03:47:28;100920.97;;;25.60;45.58
54948;BME280;41113;41.882;12.530;2022-07-06T03:49:53;100920.91;;;25.49;45.74
54948;BME280;41113;41.882;12.530;2022-07-06T03:52:19;100918.50;;;25.34;46.02
54948;BME280;41113;41.882;12.530;2022-07-06T03:54:44;100918.06;;;25.55;45.66
54948;BME280;41113;41.882;12.530;2022-07-06T03:57:09;100927.44;;;25.66;45.14
54948;BME280;41113;41.882;12.530;2022-07-06T03:59:37;100927.06;;;25.62;45.40
54948;BME280;41113;41.882;12.530;2022-07-06T04:02:02;100930.00;;;25.67;45.59
54948;BME280;41113;41.882;12.530;2022-07-06T04:04:28;100929.94;;;26.41;43.83
54948;BME280;41113;41.882;12.530;2022-07-06T04:06:53;100921.44;;;27.19;42.17
54948;BME280;41113;41.882;12.530;2022-07-06T04:09:19;100928.75;;;27.72;40.83
54948;BME280;41113;41.882;12.530;2022-07-06T04:11:44;100920.09;;;28.08;40.13
54948;BME280;41113;41.882;12.530;2022-07-06T04:14:09;100926.19;;;28.67;39.03
54948;BME280;41113;41.882;12.530;2022-07-06T04:16:35;100911.53;;;28.83;38.35
54948;BME280;41113;41.882;12.530;2022-07-06T04:19:00;100921.06;;;29.26;37.34
54948;BME280;41113;41.882;12.530;2022-07-06T04:21:25;100913.91;;;29.64;36.66
54948;BME280;41113;41.882;12.530;2022-07-06T04:23:51;100906.03;;;29.78;36.27
54948;BME280;41113;41.882;12.530;2022-07-06T04:26:16;100905.78;;;29.79;36.28
54948;BME280;41113;41.882;12.530;2022-07-06T04:28:41;100903.13;;;29.46;36.81
54948;BME280;41113;41.882;12.530;2022-07-06T04:31:06;100899.63;;;29.33;37.06
54948;BME280;41113;41.882;12.530;2022-07-06T04:33:32;100909.47;;;29.63;36.65
54948;BME280;41113;41.882;12.530;2022-07-06T04:35:57;100905.97;;;29.94;36.34
54948;BME280;41113;41.882;12.530;2022-07-06T04:38:22;100905.41;;;31.05;33.96
54948;BME280;41113;41.882;12.530;2022-07-06T04:40:48;100907.94;;;31.12;33.94
54948;BME280;41113;41.882;12.530;2022-07-06T04:43:13;100919.31;;;32.15;31.87
54948;BME280;41113;41.882;12.530;2022-07-06T04:45:39;100914.59;;;33.68;29.82
54948;BME280;41113;41.882;12.530;2022-07-06T04:48:04;100914.84;;;33.71;29.51
54948;BME280;41113;41.882;12.530;2022-07-06T04:50:29;100922.09;;;33.72;29.94
54948;BME280;41113;41.882;12.530;2022-07-06T04:52:55;100919.16;;;33.28;30.51
54948;BME280;41113;41.882;12.530;2022-07-06T04:55:20;100924.72;;;32.72;31.20
54948;BME280;41113;41.882;12.530;2022-07-06T04:57:46;100923.34;;;33.31;30.95
54948;BME280;41113;41.882;12.530;2022-07-06T05:00:11;100911.03;;;33.47;30.29
54948;BME280;41113;41.882;12.530;2022-07-06T05:02:37;100914.97;;;34.11;29.58
54948;BME280;41113;41.882;12.530;2022-07-06T05:05:02;100904.25;;;33.89;29.90
54948;BME280;41113;41.882;12.530;2022-07-06T05:07:27;100901.59;;;33.38;30.66
54948;BME280;41113;41.882;12.530;2022-07-06T05:09:54;100899.28;;;33.65;29.70
54948;BME280;41113;41.882;12.530;2022-07-06T05:12:20;100900.53;;;33.19;30.37
54948;BME280;41113;41.882;12.530;2022-07-06T05:14:45;100905.94;;;33.69;30.07
54948;BME280;41113;41.882;12.530;2022-07-06T05:17:10;100902.72;;;33.17;30.64
54948;BME280;41113;41.882;12.530;2022-07-06T05:19:35;100906.88;;;33.39;30.19
54948;BME280;41113;41.882;12.530;2022-07-06T05:22:01;100918.44;;;35.10;28.15
54948;BME280;41113;41.882;12.530;2022-07-06T05:24:26;100915.50;;;35.25;27.68
54948;BME280;41113;41.882;12.530;2022-07-06T05:26:51;100931.41;;;35.77;26.97
54948;BME280;41113;41.882;12.530;2022-07-06T05:29:17;100932.72;;;36.28;26.71
54948;BME280;41113;41.882;12.530;2022-07-06T05:31:42;100930.94;;;36.37;26.06
54948;BME280;41113;41.882;12.530;2022-07-06T05:34:08;100932.22;;;35.01;27.61
54948;BME280;41113;41.882;12.530;2022-07-06T05:36:33;100930.00;;;34.15;28.77
54948;BME280;41113;41.882;12.530;2022-07-06T05:38:58;100925.69;;;34.43;28.46
54948;BME280;41113;41.882;12.530;2022-07-06T05:41:23;100932.28;;;34.96;27.77
54948;BME280;41113;41.882;12.530;2022-07-06T05:43:49;100930.50;;;35.05;27.62
54948;BME280;41113;41.882;12.530;2022-07-06T05:46:14;100935.78;;;34.33;28.42
54948;BME280;41113;41.882;12.530;2022-07-06T05:48:39;100927.75;;;34.66;28.48
54948;BME280;41113;41.882;12.530;2022-07-06T05:51:23;100927.09;;;34.84;27.92
54948;BME280;41113;41.882;12.530;2022-07-06T05:53:49;100937.91;;;35.20;27.34
54948;BME280;41113;41.882;12.530;2022-07-06T05:56:14;100932.34;;;33.82;29.09
54948;BME280;41113;41.882;12.530;2022-07-06T05:58:39;100930.28;;;33.44;29.98
54948;BME280;41113;41.882;12.530;2022-07-06T06:01:05;100932.78;;;33.45;30.13
54948;BME280;41113;41.882;12.530;2022-07-06T06:03:32;100930.25;;;33.54;30.23
54948;BME280;41113;41.882;12.530;2022-07-06T06:05:57;100926.56;;;33.68;30.09
54948;BME280;41113;41.882;12.530;2022-07-06T06:08:22;100933.13;;;34.57;28.81
54948;BME280;41113;41.882;12.530;2022-07-06T06:10:48;100929.63;;;34.37;28.74
54948;BME280;41113;41.882;12.530;2022-07-06T06:13:13;100934.72;;;35.03;28.03
54948;BME280;41113;41.882;12.530;2022-07-06T06:15:38;100933.16;;;35.97;26.82
54948;BME280;41113;41.882;12.530;2022-07-06T06:18:04;100946.44;;;36.48;26.37
54948;BME280;41113;41.882;12.530;2022-07-06T06:20:29;100937.47;;;37.49;24.88
54948;BME280;41113;41.882;12.530;2022-07-06T06:22:55;100949.47;;;37.03;25.64
54948;BME280;41113;41.882;12.530;2022-07-06T06:25:27;100939.38;;;37.81;24.54
54948;BME280;41113;41.882;12.530;2022-07-06T06:27:53;100937.06;;;37.09;25.68
54948;BME280;41113;41.882;12.530;2022-07-06T06:30:18;100933.06;;;38.61;23.90
54948;BME280;41113;41.882;12.530;2022-07-06T06:32:43;100934.38;;;40.27;21.76
54948;BME280;41113;41.882;12.530;2022-07-06T06:35:09;100934.81;;;38.93;23.39
54948;BME280;41113;41.882;12.530;2022-07-06T06:37:34;100929.97;;;38.63;23.15
54948;BME280;41113;41.882;12.530;2022-07-06T06:40:00;100920.94;;;39.50;22.97
54948;BME280;41113;41.882;12.530;2022-07-06T06:42:26;100926.44;;;39.64;22.83
54948;BME280;41113;41.882;12.530;2022-07-06T06:44:51;100924.16;;;37.95;24.56
54948;BME280;41113;41.882;12.530;2022-07-06T06:47:16;100932.47;;;35.87;27.10
54948;BME280;41113;41.882;12.530;2022-07-06T06:49:41;100925.78;;;35.35;27.95
54948;BME280;41113;41.882;12.530;2022-07-06T06:52:07;100934.75;;;34.14;29.52
54948;BME280;41113;41.882;12.530;2022-07-06T06:54:32;100926.66;;;33.28;30.51
54948;BME280;41113;41.882;12.530;2022-07-06T06:56:57;100923.06;;;33.32;30.68
54948;BME280;41113;41.882;12.530;2022-07-06T06:59:22;100928.84;;;32.34;32.10
54948;BME280;41113;41.882;12.530;2022-07-06T07:01:49;100927.19;;;32.43;32.63
54948;BME280;41113;41.882;12.530;2022-07-06T07:04:15;100934.94;;;32.21;32.61
54948;BME280;41113;41.882;12.530;2022-07-06T07:06:40;100932.19;;;31.69;33.65
54948;BME280;41113;41.882;12.530;2022-07-06T07:09:05;100935.00;;;31.74;33.90
54948;BME280;41113;41.882;12.530;2022-07-06T07:11:30;100940.16;;;32.12;33.16
54948;BME280;41113;41.882;12.530;2022-07-06T07:13:56;100936.41;;;31.71;34.48
54948;BME280;41113;41.882;12.530;2022-07-06T07:16:21;100929.09;;;31.60;34.32
54948;BME280;41113;41.882;12.530;2022-07-06T07:18:48;100942.63;;;31.99;33.87
54948;BME280;41113;41.882;12.530;2022-07-06T07:21:13;100936.50;;;31.44;34.69
54948;BME280;41113;41.882;12.530;2022-07-06T07:23:38;100938.56;;;31.69;34.52
54948;BME280;41113;41.882;12.530;2022-07-06T07:26:04;100929.28;;;31.91;33.81
54948;BME280;41113;41.882;12.530;2022-07-06T07:28:29;100933.44;;;31.93;33.47
54948;BME280;41113;41.882;12.530;2022-07-06T07:30:54;100934.19;;;31.73;33.67
54948;BME280;41113;41.882;12.530;2022-07-06T07:33:20;100934.75;;;31.80;33.72
54948;BME280;41113;41.882;12.530;2022-07-06T07:35:45;100932.94;;;31.54;33.71
54948;BME280;41113;41.882;12.530;2022-07-06T07:38:10;100928.97;;;31.40;34.09
54948;BME280;41113;41.882;12.530;2022-07-06T07:40:35;100933.94;;;31.80;33.63
54948;BME280;41113;41.882;12.530;2022-07-06T07:43:01;100923.53;;;31.60;34.19
54948;BME280;41113;41.882;12.530;2022-07-06T07:45:26;100928.22;;;31.54;33.39
54948;BME280;41113;41.882;12.530;2022-07-06T07:47:52;100923.75;;;32.01;32.83
54948;BME280;41113;41.882;12.530;2022-07-06T07:50:17;100921.28;;;32.19;32.83
54948;BME280;41113;41.882;12.530;2022-07-06T07:52:43;100921.81;;;32.06;33.58
54948;BME280;41113;41.882;12.530;2022-07-06T07:55:08;100922.63;;;32.02;33.20
54948;BME280;41113;41.882;12.530;2022-07-06T07:57:34;100917.69;;;32.24;32.85
54948;BME280;41113;41.882;12.530;2022-07-06T07:59:59;100917.78;;;32.55;32.69
54948;BME280;41113;41.882;12.530;2022-07-06T08:02:24;100907.50;;;32.65;32.40
54948;BME280;41113;41.882;12.530;2022-07-06T08:04:50;100912.25;;;32.95;32.40
54948;BME280;41113;41.882;12.530;2022-07-06T08:07:15;100907.50;;;33.06;31.94
54948;BME280;41113;41.882;12.530;2022-07-06T08:09:40;100913.34;;;32.99;31.88
54948;BME280;41113;41.882;12.530;2022-07-06T08:12:05;100913.59;;;33.13;31.82
54948;BME280;41113;41.882;12.530;2022-07-06T08:14:31;100907.47;;;33.21;31.65
54948;BME280;41113;41.882;12.530;2022-07-06T08:16:56;100907.72;;;33.30;31.78
54948;BME280;41113;41.882;12.530;2022-07-06T08:19:22;100914.69;;;33.27;31.07
54948;BME280;41113;41.882;12.530;2022-07-06T08:21:47;100907.19;;;33.38;31.29
54948;BME280;41113;41.882;12.530;2022-07-06T08:24:12;100907.41;;;33.57;31.14
54948;BME280;41113;41.882;12.530;2022-07-06T08:26:37;100905.91;;;33.90;30.80
54948;BME280;41113;41.882;12.530;2022-07-06T08:29:03;100910.69;;;33.84;30.59
54948;BME280;41113;41.882;12.530;2022-07-06T08:31:28;100909.78;;;33.94;30.05
54948;BME280;41113;41.882;12.530;2022-07-06T08:33:54;100909.28;;;34.31;29.88
54948;BME280;41113;41.882;12.530;2022-07-06T08:36:19;100915.00;;;34.55;30.05
54948;BME280;41113;41.882;12.530;2022-07-06T08:38:45;100910.81;;;34.57;29.52
54948;BME280;41113;41.882;12.530;2022-07-06T08:41:11;100911.53;;;34.68;29.83
54948;BME280;41113;41.882;12.530;2022-07-06T08:43:38;100911.13;;;34.51;29.36
54948;BME280;41113;41.882;12.530;2022-07-06T08:46:04;100910.16;;;34.26;29.89
54948;BME280;41113;41.882;12.530;2022-07-06T08:48:31;100912.09;;;34.26;29.77
54948;BME280;41113;41.882;12.530;2022-07-06T08:51:00;100907.91;;;34.33;30.03
54948;BME280;41113;41.882;12.530;2022-07-06T08:53:25;100914.56;;;34.38;30.02
54948;BME280;41113;41.882;12.530;2022-07-06T08:55:50;100912.84;;;34.42;29.93
54948;BME280;41113;41.882;12.530;2022-07-06T08:58:16;100911.94;;;34.56;29.90
54948;BME280;41113;41.882;12.530;2022-07-06T09:00:41;100918.88;;;34.59;30.46
54948;BME280;41113;41.882;12.530;2022-07-06T09:03:07;100906.56;;;34.65;29.90
54948;BME280;41113;41.882;12.530;2022-07-06T09:05:39;100913.75;;;34.71;30.10
54948;BME280;41113;41.882;12.530;2022-07-06T09:08:05;100903.06;;;34.78;29.53
54948;BME280;41113;41.882;12.530;2022-07-06T09:10:30;100907.38;;;35.00;29.45
54948;BME280;41113;41.882;12.530;2022-07-06T09:13:06;100914.28;;;35.07;29.33
54948;BME280;41113;41.882;12.530;2022-07-06T09:15:32;100914.16;;;35.22;29.40
54948;BME280;41113;41.882;12.530;2022-07-06T09:17:58;100912.66;;;35.30;28.99
54948;BME280;41113;41.882;12.530;2022-07-06T09:20:23;100910.31;;;35.42;29.20
54948;BME280;41113;41.882;12.530;2022-07-06T09:22:49;100914.16;;;35.51;29.05
54948;BME280;41113;41.882;12.530;2022-07-06T09:25:15;100911.28;;;35.57;29.20
54948;BME280;41113;41.882;12.530;2022-07-06T09:27:41;100922.75;;;35.26;28.26
54948;BME280;41113;41.882;12.530;2022-07-06T09:30:07;100917.25;;;35.21;28.75
54948;BME280;41113;41.882;12.530;2022-07-06T09:32:42;100917.19;;;35.26;28.66
54948;BME280;41113;41.882;12.530;2022-07-06T09:35:08;100921.03;;;35.30;28.81
54948;BME280;41113;41.882;12.530;2022-07-06T09:37:43;100917.41;;;35.30;28.65
54948;BME280;41113;41.882;12.530;2022-07-06T09:40:18;100911.75;;;35.40;28.68
54948;BME280;41113;41.882;12.530;2022-07-06T09:42:44;100912.94;;;35.58;28.28
54948;BME280;41113;41.882;12.530;2022-07-06T09:45:09;100919.22;;;35.68;28.60
54948;BME280;41113;41.882;12.530;2022-07-06T09:47:35;100921.09;;;35.78;28.54
54948;BME280;41113;41.882;12.530;2022-07-06T09:50:02;100927.78;;;35.77;28.26
54948;BME280;41113;41.882;12.530;2022-07-06T09:52:29;100931.09;;;35.84;27.53
54948;BME280;41113;41.882;12.530;2022-07-06T09:54:58;100931.03;;;35.89;27.40
54948;BME280;41113;41.882;12.530;2022-07-06T09:57:23;100920.91;;;35.93;27.38
54948;BME280;41113;41.882;12.530;2022-07-06T09:59:50;100917.81;;;35.71;27.03
54948;BME280;41113;41.882;12.530;2022-07-06T10:02:16;100912.13;;;35.57;26.42
54948;BME280;41113;41.882;12.530;2022-07-06T10:04:41;100910.06;;;35.39;26.80
54948;BME280;41113;41.882;12.530;2022-07-06T10:07:09;100914.91;;;35.57;27.77
54948;BME280;41113;41.882;12.530;2022-07-06T10:09:35;100920.66;;;35.66;27.70
54948;BME280;41113;41.882;12.530;2022-07-06T10:12:01;100917.44;;;35.77;26.76
54948;BME280;41113;41.882;12.530;2022-07-06T10:14:28;100908.00;;;35.97;26.28
54948;BME280;41113;41.882;12.530;2022-07-06T10:16:57;100920.38;;;36.10;26.21
54948;BME280;41113;41.882;12.530;2022-07-06T10:19:23;100909.44;;;36.13;24.94
54948;BME280;41113;41.882;12.530;2022-07-06T10:21:48;100911.56;;;36.22;25.81
54948;BME280;41113;41.882;12.530;2022-07-06T10:24:14;100913.09;;;36.14;24.84
54948;BME280;41113;41.882;12.530;2022-07-06T10:26:40;100916.72;;;36.14;25.03
54948;BME280;41113;41.882;12.530;2022-07-06T10:29:06;100919.13;;;36.21;26.07
54948;BME280;41113;41.882;12.530;2022-07-06T10:31:32;100916.31;;;36.21;25.89
54948;BME280;41113;41.882;12.530;2022-07-06T10:34:02;100914.44;;;36.16;24.76
54948;BME280;41113;41.882;12.530;2022-07-06T10:36:28;100917.31;;;36.11;24.76
54948;BME280;41113;41.882;12.530;2022-07-06T10:38:53;100917.53;;;36.15;24.69
54948;BME280;41113;41.882;12.530;2022-07-06T10:41:29;100912.38;;;35.84;24.87
54948;BME280;41113;41.882;12.530;2022-07-06T10:43:55;100911.38;;;35.94;25.43
54948;BME280;41113;41.882;12.530;2022-07-06T10:46:22;100902.16;;;35.94;25.25
54948;BME280;41113;41.882;12.530;2022-07-06T10:48:47;100911.25;;;36.04;26.06
54948;BME280;41113;41.882;12.530;2022-07-06T10:51:34;100911.72;;;36.11;25.60
54948;BME280;41113;41.882;12.530;2022-07-06T10:54:00;100915.16;;;36.03;25.20
54948;BME280;41113;41.882;12.530;2022-07-06T10:56:32;100921.50;;;35.90;26.32
54948;BME280;41113;41.882;12.530;2022-07-06T10:59:01;100916.97;;;35.94;26.18
54948;BME280;41113;41.882;12.530;2022-07-06T11:01:27;100908.91;;;35.93;26.55
54948;BME280;41113;41.882;12.530;2022-07-06T11:06:22;100926.66;;;35.83;26.29
54948;BME280;41113;41.882;12.530;2022-07-06T11:08:55;100913.72;;;35.87;26.50
54948;BME280;41113;41.882;12.530;2022-07-06T11:11:22;100917.69;;;35.81;26.34
54948;BME280;41113;41.882;12.530;2022-07-06T11:16:17;100909.56;;;35.84;26.89
54948;BME280;41113;41.882;12.530;2022-07-06T11:18:48;100910.19;;;36.00;26.63
54948;BME280;41113;41.882;12.530;2022-07-06T11:21:17;100912.16;;;36.00;26.06
54948;BME280;41113;41.882;12.530;2022-07-06T11:23:43;100904.59;;;36.00;26.13
54948;BME280;41113;41.882;12.530;2022-07-06T11:26:10;100911.25;;;36.04;25.53
54948;BME280;41113;41.882;12.530;2022-07-06T11:28:35;100900.66;;;36.01;25.42
54948;BME280;41113;41.882;12.530;2022-07-06T11:31:02;100907.91;;;36.02;25.81
54948;BME280;41113;41.882;12.530;2022-07-06T11:33:28;100904.47;;;36.10;25.21
54948;BME280;41113;41.882;12.530;2022-07-06T11:36:10;100910.19;;;36.00;24.87
54948;BME280;41113;41.882;12.530;2022-07-06T11:38:36;100909.03;;;36.01;24.74
54948;BME280;41113;41.882;12.530;2022-07-06T11:41:04;100903.69;;;36.05;24.97
54948;BME280;41113;41.882;12.530;2022-07-06T11:43:30;100901.59;;;36.15;24.53
54948;BME280;41113;41.882;12.530;2022-07-06T11:45:55;100906.56;;;36.19;24.78
54948;BME280;41113;41.882;12.530;2022-07-06T11:48:20;100905.53;;;36.14;25.14
54948;BME280;41113;41.882;12.530;2022-07-06T11:51:01;100906.66;;;36.13;25.38
54948;BME280;41113;41.882;12.530;2022-07-06T11:53:27;100900.06;;;36.04;25.27
54948;BME280;41113;41.882;12.530;2022-07-06T11:55:52;100899.00;;;36.00;25.12
54948;BME280;41113;41.882;12.530;2022-07-06T11:58:22;100900.88;;;36.05;25.96
54948;BME280;41113;41.882;12.530;2022-07-06T12:01:04;100897.03;;;36.01;26.35
54948;BME280;41113;41.882;12.530;2022-07-06T12:03:29;100894.63;;;35.94;26.37
54948;BME280;41113;41.882;12.530;2022-07-06T12:05:55;100895.00;;;35.88;26.84
54948;BME280;41113;41.882;12.530;2022-07-06T12:08:20;100888.41;;;35.73;26.59
54948;BME280;41113;41.882;12.530;2022-07-06T12:10:45;100900.19;;;35.70;26.45
54948;BME280;41113;41.882;12.530;2022-07-06T12:13:11;100890.47;;;35.68;26.61
54948;BME280;41113;41.882;12.530;2022-07-06T12:15:36;100895.94;;;35.54;27.24
54948;BME280;41113;41.882;12.530;2022-07-06T12:18:02;100892.63;;;35.52;27.37
54948;BME280;41113;41.882;12.530;2022-07-06T12:20:27;100884.31;;;35.47;27.77
54948;BME280;41113;41.882;12.530;2022-07-06T12:23:02;100884.03;;;35.43;27.97
54948;BME280;41113;41.882;12.530;2022-07-06T12:25:31;100888.78;;;35.43;28.31
54948;BME280;41113;41.882;12.530;2022-07-06T12:27:57;100897.47;;;35.41;28.12
54948;BME280;41113;41.882;12.530;2022-07-06T12:30:23;100886.59;;;35.40;27.62
54948;BME280;41113;41.882;12.530;2022-07-06T12:33:10;100888.31;;;35.36;27.03
54948;BME280;41113;41.882;12.530;2022-07-06T12:35:33;100883.91;;;35.30;26.55
54948;BME280;41113;41.882;12.530;2022-07-06T12:37:59;100876.41;;;35.25;26.16
54948;BME280;41113;41.882;12.530;2022-07-06T12:40:26;100884.84;;;35.20;26.54